createdAt,value
2022-09-07T00:00:55.092Z,3.67
2022-09-07T00:03:23.685Z,2.90
2022-09-07T00:05:52.891Z,2.90
2022-09-07T00:08:22.669Z,3.20
2022-09-07T00:10:56.726Z,3.10
2022-09-07T00:13:26.110Z,3.97
2022-09-07T00:15:54.155Z,4.23
2022-09-07T00:18:22.277Z,3.30
2022-09-07T00:21:00.028Z,3.23
2022-09-07T00:23:29.220Z,3.10
2022-09-07T00:26:01.958Z,3.03
2022-09-07T00:28:30.470Z,3.33
2022-09-07T00:30:58.832Z,3.67
2022-09-07T00:33:26.839Z,3.40
2022-09-07T00:35:55.130Z,3.13
2022-09-07T00:38:22.975Z,3.27
2022-09-07T00:40:50.912Z,3.10
2022-09-07T00:43:33.955Z,3.00
2022-09-07T00:46:02.273Z,3.50
2022-09-07T00:48:36.029Z,3.10
2022-09-07T00:51:10.645Z,3.03
2022-09-07T00:53:41.308Z,3.03
2022-09-07T00:56:09.984Z,3.33
2022-09-07T00:58:42.869Z,3.70
2022-09-07T01:01:10.901Z,3.90
2022-09-07T01:03:43.942Z,4.00
2022-09-07T01:06:17.683Z,3.30
2022-09-07T01:08:48.572Z,3.27
2022-09-07T01:11:16.937Z,3.03
2022-09-07T01:13:48.267Z,3.47
2022-09-07T01:16:28.760Z,3.70
2022-09-07T01:19:06.933Z,3.90
2022-09-07T01:21:46.645Z,4.07
2022-09-07T01:24:45.656Z,3.90
2022-09-07T01:27:53.428Z,3.17
2022-09-07T01:30:23.228Z,3.63
2022-09-07T01:33:12.050Z,4.63
2022-09-07T01:35:49.447Z,3.73
2022-09-07T01:38:26.684Z,4.30
2022-09-07T01:41:01.276Z,3.67
2022-09-07T01:43:38.020Z,3.10
2022-09-07T01:46:13.094Z,3.40
2022-09-07T01:48:44.005Z,3.40
2022-09-07T01:51:14.632Z,3.40
2022-09-07T01:53:49.641Z,3.03
2022-09-07T01:56:22.641Z,2.97
2022-09-07T01:58:56.252Z,3.40
2022-09-07T02:01:28.252Z,3.23
2022-09-07T02:04:01.379Z,3.30
2022-09-07T02:06:38.240Z,3.90
2022-09-07T02:09:11.769Z,2.97
2022-09-07T02:11:42.575Z,2.90
2022-09-07T02:14:16.217Z,2.90
2022-09-07T02:16:49.723Z,2.77
2022-09-07T02:19:20.799Z,3.10
2022-09-07T02:21:52.525Z,2.40
2022-09-07T02:24:25.276Z,2.97
2022-09-07T02:26:54.854Z,2.53
2022-09-07T02:29:25.288Z,2.73
2022-09-07T02:31:55.925Z,2.57
2022-09-07T02:34:23.850Z,2.73
2022-09-07T02:36:53.841Z,2.60
2022-09-07T02:39:21.999Z,2.53
2022-09-07T02:41:49.922Z,2.63
2022-09-07T02:44:22.988Z,1.90
2022-09-07T02:47:04.475Z,2.20
2022-09-07T02:49:48.245Z,2.07
2022-09-07T02:52:26.867Z,1.70
2022-09-07T02:55:06.039Z,2.03
2022-09-07T02:57:45.532Z,2.23
2022-09-07T03:00:16.160Z,1.80
2022-09-07T03:02:52.948Z,2.00
2022-09-07T03:05:24.361Z,1.80
2022-09-07T03:07:56.449Z,2.23
2022-09-07T03:10:24.736Z,2.00
2022-09-07T03:12:52.909Z,1.80
2022-09-07T03:15:23.604Z,1.90
2022-09-07T03:17:53.477Z,1.80
2022-09-07T03:20:22.893Z,2.20
2022-09-07T03:22:52.603Z,2.03
2022-09-07T03:25:22.117Z,2.00
2022-09-07T03:27:50.028Z,1.67
2022-09-07T03:30:18.250Z,1.80
2022-09-07T03:32:46.185Z,1.90
2022-09-07T03:35:15.740Z,2.20
2022-09-07T03:37:43.649Z,2.00
2022-09-07T03:40:14.086Z,2.33
2022-09-07T03:42:43.153Z,2.50
2022-09-07T03:45:12.182Z,1.93
2022-09-07T03:47:40.545Z,2.37
2022-09-07T03:50:09.304Z,2.07
2022-09-07T03:52:39.320Z,2.53
2022-09-07T03:55:08.069Z,2.13
2022-09-07T03:57:36.117Z,1.90
2022-09-07T04:00:05.868Z,2.00
2022-09-07T04:02:33.917Z,2.10
2022-09-07T04:05:01.865Z,1.70
2022-09-07T04:07:29.712Z,1.83
2022-09-07T04:09:58.947Z,2.40
2022-09-07T04:12:27.004Z,2.10
2022-09-07T04:14:54.926Z,2.70
2022-09-07T04:17:22.949Z,2.90
2022-09-07T04:19:50.868Z,2.20
2022-09-07T04:22:18.748Z,2.43
2022-09-07T04:24:46.602Z,3.87
2022-09-07T04:27:15.833Z,2.87
2022-09-07T04:29:46.108Z,2.30
2022-09-07T04:32:15.955Z,2.50
2022-09-07T04:34:44.055Z,1.50
2022-09-07T04:37:12.472Z,1.90
2022-09-07T04:39:40.353Z,1.80
2022-09-07T04:42:08.383Z,2.40
2022-09-07T04:44:37.653Z,2.13
2022-09-07T04:47:05.625Z,2.03
2022-09-07T04:49:33.628Z,2.13
2022-09-07T04:52:01.473Z,2.60
2022-09-07T04:54:29.354Z,2.30
2022-09-07T04:56:57.237Z,2.07
2022-09-07T04:59:25.630Z,2.37
2022-09-07T05:01:54.945Z,2.43
2022-09-07T05:04:22.868Z,2.47
2022-09-07T05:06:50.736Z,2.00
2022-09-07T05:09:18.600Z,2.33
2022-09-07T05:11:46.514Z,2.20
2022-09-07T05:14:14.545Z,2.17
2022-09-07T05:16:42.540Z,1.70
2022-09-07T05:19:14.263Z,2.50
2022-09-07T05:21:42.162Z,2.27
2022-09-07T05:24:11.198Z,2.03
2022-09-07T05:26:40.264Z,2.20
2022-09-07T05:31:56.644Z,2.53
2022-09-07T05:36:59.368Z,2.40
2022-09-07T05:39:27.578Z,2.20
2022-09-07T05:41:55.529Z,2.30
2022-09-07T05:47:11.803Z,2.80
2022-09-07T05:49:41.201Z,2.37
2022-09-07T05:52:09.110Z,2.10
2022-09-07T05:54:37.083Z,2.83
2022-09-07T05:57:05.373Z,2.10
2022-09-07T05:59:33.272Z,2.43
2022-09-07T06:02:01.337Z,1.77
2022-09-07T06:04:29.285Z,2.47
2022-09-07T06:07:20.559Z,1.87
2022-09-07T06:12:34.594Z,2.10
2022-09-07T06:15:02.790Z,2.20
2022-09-07T06:17:31.095Z,2.33
2022-09-07T06:19:59.029Z,3.00
2022-09-07T06:22:31.021Z,2.47
2022-09-07T06:24:59.613Z,2.40
2022-09-07T06:27:27.583Z,2.60
2022-09-07T06:29:55.514Z,2.83
2022-09-07T06:35:12.380Z,2.47
2022-09-07T06:37:42.429Z,2.90
2022-09-07T06:40:11.470Z,2.50
2022-09-07T06:42:39.754Z,2.87
2022-09-07T06:45:10.004Z,2.57
2022-09-07T06:47:37.928Z,2.90
2022-09-07T06:50:06.364Z,2.30
2022-09-07T06:55:27.519Z,2.43
2022-09-07T06:57:56.596Z,3.50
2022-09-07T07:00:24.539Z,2.70
2022-09-07T07:02:52.609Z,2.60
2022-09-07T07:05:20.499Z,3.00
2022-09-07T07:07:48.345Z,2.90
2022-09-07T07:10:18.757Z,2.90
2022-09-07T07:12:50.299Z,2.83
2022-09-07T07:15:18.195Z,2.53
2022-09-07T07:17:49.120Z,2.60
2022-09-07T07:20:21.133Z,2.90
2022-09-07T07:22:52.022Z,2.60
2022-09-07T07:25:20.325Z,3.03
2022-09-07T07:27:49.866Z,2.87
2022-09-07T07:30:19.500Z,2.10
2022-09-07T07:32:48.242Z,2.43
2022-09-07T07:35:16.139Z,2.43
2022-09-07T07:37:44.112Z,2.23
2022-09-07T07:40:15.419Z,1.90
2022-09-07T07:42:44.657Z,3.50
2022-09-07T07:48:02.666Z,2.07
2022-09-07T07:50:31.515Z,1.97
2022-09-07T07:55:48.208Z,2.37
2022-09-07T07:58:16.033Z,2.83
2022-09-07T08:01:00.712Z,2.43
2022-09-07T08:03:28.947Z,2.00
2022-09-07T08:05:57.188Z,2.07
2022-09-07T08:08:25.486Z,1.70
2022-09-07T08:10:53.434Z,2.37
2022-09-07T08:13:21.726Z,2.07
2022-09-07T08:15:51.063Z,1.83
2022-09-07T08:18:19.170Z,1.83
2022-09-07T08:20:46.895Z,1.70
2022-09-07T08:23:15.329Z,1.70
2022-09-07T08:25:51.453Z,2.33
2022-09-07T08:28:19.462Z,2.10
2022-09-07T08:30:47.263Z,1.50
2022-09-07T08:33:16.697Z,2.00
2022-09-07T08:35:54.394Z,1.60
2022-09-07T08:38:22.136Z,1.60
2022-09-07T08:40:50.110Z,1.70
2022-09-07T08:43:31.334Z,1.87
2022-09-07T08:46:05.860Z,1.80
2022-09-07T08:48:36.258Z,1.70
2022-09-07T08:51:11.085Z,1.87
2022-09-07T08:53:45.659Z,1.80
2022-09-07T08:56:19.729Z,2.13
2022-09-07T08:58:50.416Z,1.77
2022-09-07T09:01:35.969Z,1.50
2022-09-07T09:04:16.709Z,1.40
2022-09-07T09:07:00.475Z,1.80
2022-09-07T09:09:41.030Z,1.47
2022-09-07T09:12:20.423Z,2.00
2022-09-07T09:15:00.387Z,1.90
2022-09-07T09:17:33.429Z,1.33
2022-09-07T09:20:14.534Z,1.70
2022-09-07T09:22:42.727Z,1.40
2022-09-07T09:25:19.428Z,1.47
2022-09-07T09:27:47.738Z,1.80
2022-09-07T09:30:17.462Z,1.70
2022-09-07T09:32:47.561Z,1.80
2022-09-07T09:35:24.245Z,1.67
2022-09-07T09:37:52.057Z,1.63
2022-09-07T09:40:23.537Z,1.30
2022-09-07T09:43:03.957Z,1.40
2022-09-07T09:48:32.976Z,1.30
2022-09-07T09:53:58.049Z,1.10
2022-09-07T09:56:41.904Z,1.30
2022-09-07T10:05:26.980Z,1.10
2022-09-07T10:07:56.693Z,1.70
2022-09-07T10:10:25.278Z,1.20
2022-09-07T10:12:55.166Z,1.17
2022-09-07T10:15:29.949Z,1.20
2022-09-07T10:17:59.726Z,1.83
2022-09-07T10:20:36.399Z,1.83
2022-09-07T10:23:07.368Z,1.10
2022-09-07T10:25:37.588Z,1.17
2022-09-07T10:28:18.528Z,1.20
2022-09-07T10:31:12.330Z,1.20
2022-09-07T10:36:45.240Z,1.33
2022-09-07T10:39:18.199Z,1.40
2022-09-07T10:41:55.979Z,1.43
2022-09-07T10:44:39.858Z,1.40
2022-09-07T10:47:16.849Z,1.53
2022-09-07T10:52:50.632Z,1.40
2022-09-07T10:55:26.158Z,1.40
2022-09-07T10:58:10.481Z,1.40
2022-09-07T11:00:44.721Z,1.10
2022-09-07T11:03:33.388Z,1.33
2022-09-07T11:06:11.564Z,1.10
2022-09-07T11:12:02.719Z,1.80
2022-09-07T11:14:37.572Z,1.47
2022-09-07T11:17:12.943Z,1.70
2022-09-07T11:19:45.601Z,1.37
2022-09-07T11:22:20.308Z,1.67
2022-09-07T11:27:48.113Z,1.27
2022-09-07T11:30:22.788Z,1.50
2022-09-07T11:33:06.148Z,1.43
2022-09-07T11:35:41.983Z,1.60
2022-09-07T11:38:22.767Z,2.17
2022-09-07T11:41:00.460Z,1.50
2022-09-07T11:43:32.606Z,1.47
2022-09-07T11:46:05.169Z,1.50
2022-09-07T11:48:37.478Z,1.30
2022-09-07T11:51:09.933Z,1.57
2022-09-07T11:53:40.738Z,2.90
2022-09-07T11:56:14.818Z,1.40
2022-09-07T11:58:57.071Z,1.33
2022-09-07T12:01:35.066Z,1.30
2022-09-07T12:04:29.300Z,1.40
2022-09-07T12:07:17.331Z,1.60
2022-09-07T12:10:02.615Z,1.67
2022-09-07T12:12:56.554Z,1.40
2022-09-07T12:15:33.471Z,1.20
2022-09-07T12:18:14.964Z,1.53
2022-09-07T12:20:44.716Z,1.50
2022-09-07T12:23:36.449Z,1.60
2022-09-07T12:26:41.684Z,1.30
2022-09-07T12:29:26.558Z,1.40
2022-09-07T12:31:58.678Z,1.53
2022-09-07T12:35:01.145Z,1.50
2022-09-07T12:37:43.878Z,1.63
2022-09-07T12:40:57.581Z,1.80
2022-09-07T12:43:53.888Z,1.40
2022-09-07T12:46:46.754Z,1.40
2022-09-07T12:49:43.962Z,1.30
2022-09-07T12:52:40.524Z,2.00
2022-09-07T12:55:31.130Z,1.23
2022-09-07T12:58:15.014Z,1.50
2022-09-07T13:00:55.174Z,1.60
2022-09-07T13:03:49.840Z,1.43
2022-09-07T13:09:31.146Z,1.40
2022-09-07T13:11:59.738Z,1.87
2022-09-07T13:14:29.677Z,1.50
2022-09-07T13:17:41.463Z,1.47
2022-09-07T13:20:30.039Z,1.30
2022-09-07T13:23:28.845Z,1.60
2022-09-07T13:26:01.350Z,1.97
2022-09-07T13:28:54.909Z,1.20
2022-09-07T13:31:47.922Z,1.60
2022-09-07T13:34:43.202Z,1.40
2022-09-07T13:37:18.402Z,1.43
2022-09-07T13:39:52.538Z,1.60
2022-09-07T13:42:23.964Z,1.50
2022-09-07T13:44:57.136Z,1.70
2022-09-07T13:47:36.429Z,1.37
2022-09-07T13:50:37.381Z,2.20
2022-09-07T13:53:27.414Z,1.40
2022-09-07T13:56:04.835Z,1.27
2022-09-07T13:58:36.530Z,1.50
2022-09-07T14:01:08.303Z,1.33
2022-09-07T14:03:41.074Z,1.70
2022-09-07T14:06:17.239Z,1.73
2022-09-07T14:08:49.353Z,1.40
2022-09-07T14:11:24.456Z,1.30
2022-09-07T14:14:09.201Z,1.33
2022-09-07T14:16:37.629Z,1.40
2022-09-07T14:19:12.215Z,1.47
2022-09-07T14:21:40.980Z,1.60
2022-09-07T14:24:21.014Z,1.57
2022-09-07T14:26:50.714Z,1.90
2022-09-07T14:29:24.402Z,1.40
2022-09-07T14:31:52.427Z,1.30
2022-09-07T14:34:25.777Z,1.43
2022-09-07T14:36:54.749Z,1.50
2022-09-07T14:39:24.670Z,1.40
2022-09-07T14:41:54.223Z,1.33
2022-09-07T14:44:33.418Z,1.17
2022-09-07T14:47:05.537Z,1.50
2022-09-07T14:49:34.165Z,1.13
2022-09-07T14:52:02.194Z,1.90
2022-09-07T14:54:32.246Z,1.40
2022-09-07T14:57:07.540Z,1.50
2022-09-07T14:59:38.945Z,1.33
2022-09-07T15:02:38.520Z,1.30
2022-09-07T15:05:22.988Z,1.40
2022-09-07T15:07:52.994Z,1.40
2022-09-07T15:10:41.323Z,1.40
2022-09-07T15:13:29.211Z,1.50
2022-09-07T15:15:59.533Z,1.33
2022-09-07T15:18:52.322Z,1.30
2022-09-07T15:21:20.226Z,1.87
2022-09-07T15:23:51.226Z,1.53
2022-09-07T15:29:11.173Z,1.37
2022-09-07T15:31:42.196Z,1.43
2022-09-07T15:34:14.167Z,1.90
2022-09-07T15:36:43.778Z,1.20
2022-09-07T15:39:17.851Z,1.43
2022-09-07T15:41:45.733Z,2.00
2022-09-07T15:44:15.854Z,1.47
2022-09-07T15:47:43.182Z,1.43
2022-09-07T15:49:31.698Z,1.77
2022-09-07T15:52:07.228Z,1.40
2022-09-07T15:54:36.880Z,1.53
2022-09-07T15:59:57.854Z,1.33
2022-09-07T16:05:13.584Z,1.40
2022-09-07T16:10:32.587Z,2.10
2022-09-07T16:13:01.803Z,1.70
2022-09-07T16:15:32.241Z,1.27
2022-09-07T16:18:00.127Z,1.47
2022-09-07T16:20:31.940Z,1.20
2022-09-07T16:23:16.698Z,1.50
2022-09-07T16:25:56.970Z,2.50
2022-09-07T16:28:24.847Z,1.27
2022-09-07T16:30:54.424Z,1.40
2022-09-07T16:33:27.011Z,2.10
2022-09-07T16:36:02.500Z,1.23
2022-09-07T16:38:47.607Z,1.80
2022-09-07T16:41:16.843Z,1.60
2022-09-07T16:43:54.529Z,1.30
2022-09-07T16:46:25.354Z,1.57
2022-09-07T16:48:53.613Z,1.67
2022-09-07T16:51:25.735Z,1.67
2022-09-07T16:53:55.596Z,2.00
2022-09-07T16:56:25.855Z,2.37
2022-09-07T16:58:56.651Z,1.50
2022-09-07T17:01:28.268Z,2.23
2022-09-07T17:03:56.637Z,1.30
2022-09-07T17:06:26.318Z,1.53
2022-09-07T17:08:54.838Z,1.93
2022-09-07T17:11:24.911Z,1.73
2022-09-07T17:13:53.477Z,1.40
2022-09-07T17:16:23.296Z,2.13
2022-09-07T17:21:41.778Z,1.37
2022-09-07T17:24:11.263Z,1.73
2022-09-07T17:26:42.246Z,15.90
2022-09-07T17:29:13.071Z,18.47
2022-09-07T17:34:31.303Z,5.73
2022-09-07T17:37:00.677Z,5.60
2022-09-07T17:39:29.080Z,3.43
2022-09-07T17:41:56.993Z,2.90
2022-09-07T17:44:24.751Z,2.30
2022-09-07T17:46:52.754Z,1.70
2022-09-07T17:49:20.684Z,2.17
2022-09-07T17:51:49.782Z,1.97
2022-09-07T17:54:19.027Z,2.13
2022-09-07T17:56:47.546Z,1.80
2022-09-07T18:02:03.179Z,2.23
2022-09-07T18:04:31.074Z,1.93
2022-09-07T18:07:00.251Z,2.07
2022-09-07T18:09:28.145Z,2.10
2022-09-07T18:11:55.952Z,2.30
2022-09-07T18:14:23.849Z,2.30
2022-09-07T18:16:51.787Z,2.27
2022-09-07T18:19:20.460Z,2.77
2022-09-07T18:21:49.313Z,3.50
2022-09-07T18:24:20.627Z,11.70
2022-09-07T18:26:51.824Z,9.83
2022-09-07T18:29:36.892Z,6.83
2022-09-07T18:32:08.715Z,6.83
2022-09-07T18:34:37.863Z,5.17
2022-09-07T18:37:06.748Z,4.10
2022-09-07T18:39:36.436Z,2.53
2022-09-07T18:42:04.407Z,2.93
2022-09-07T18:47:27.593Z,2.30
2022-09-07T18:49:56.136Z,2.60
2022-09-07T18:55:12.999Z,3.00
2022-09-07T18:57:40.769Z,2.80
2022-09-07T19:00:10.883Z,2.50
2022-09-07T19:02:38.926Z,2.13
2022-09-07T19:07:55.152Z,2.40
2022-09-07T19:10:24.293Z,2.30
2022-09-07T19:12:52.096Z,2.57
2022-09-07T19:15:21.095Z,2.30
2022-09-07T19:17:48.806Z,2.23
2022-09-07T19:20:16.729Z,2.40
2022-09-07T19:22:44.508Z,2.77
2022-09-07T19:25:12.617Z,2.33
2022-09-07T19:27:41.727Z,2.50
2022-09-07T19:30:10.580Z,2.70
2022-09-07T19:32:38.353Z,2.50
2022-09-07T19:35:06.623Z,2.67
2022-09-07T19:37:34.410Z,3.00
2022-09-07T19:40:02.449Z,2.63
2022-09-07T19:42:30.341Z,2.47
2022-09-07T19:44:59.562Z,2.63
2022-09-07T19:47:27.456Z,2.80
2022-09-07T19:49:55.157Z,2.33
2022-09-07T19:52:23.246Z,2.73
2022-09-07T19:54:51.010Z,2.50
2022-09-07T19:57:18.781Z,2.27
2022-09-07T19:59:47.193Z,2.10
2022-09-07T20:02:16.281Z,2.30
2022-09-07T20:04:44.190Z,2.70
2022-09-07T20:07:13.250Z,2.70
2022-09-07T20:09:41.018Z,2.20
2022-09-07T20:12:09.458Z,2.73
2022-09-07T20:14:37.326Z,2.67
2022-09-07T20:17:05.187Z,2.67
2022-09-07T20:19:34.249Z,3.00
2022-09-07T20:22:02.006Z,2.17
2022-09-07T20:24:29.797Z,2.37
2022-09-07T20:26:57.572Z,2.50
2022-09-07T20:29:28.312Z,2.90
2022-09-07T20:31:57.265Z,3.23
2022-09-07T20:34:25.245Z,3.50
2022-09-07T20:36:54.598Z,2.80
2022-09-07T20:39:22.675Z,2.80
2022-09-07T20:41:50.516Z,2.43
2022-09-07T20:44:18.851Z,3.07
2022-09-07T20:46:46.702Z,2.07
2022-09-07T20:49:16.959Z,2.80
2022-09-07T20:51:44.767Z,2.70
2022-09-07T20:54:13.845Z,2.17
2022-09-07T20:56:41.679Z,2.50
2022-09-07T20:59:09.654Z,2.63
2022-09-07T21:01:37.579Z,2.70
2022-09-07T21:04:06.066Z,2.40
2022-09-07T21:06:34.083Z,2.83
2022-09-07T21:09:01.957Z,2.30
2022-09-07T21:11:33.508Z,2.67
2022-09-07T21:14:05.986Z,2.60
2022-09-07T21:16:34.300Z,2.97
2022-09-07T21:19:03.403Z,2.70
2022-09-07T21:21:38.669Z,2.90
2022-09-07T21:24:08.072Z,2.40
2022-09-07T21:26:37.243Z,3.03
2022-09-07T21:29:05.941Z,2.63
2022-09-07T21:31:34.401Z,2.70
2022-09-07T21:34:03.106Z,2.70
2022-09-07T21:36:31.725Z,2.37
2022-09-07T21:38:59.475Z,2.03
2022-09-07T21:41:27.365Z,2.20
2022-09-07T21:43:57.218Z,2.00
2022-09-07T21:46:26.034Z,2.03
2022-09-07T21:48:56.021Z,2.40
2022-09-07T21:51:24.685Z,2.23
2022-09-07T21:53:53.107Z,2.30
2022-09-07T21:56:21.653Z,2.67
2022-09-07T21:58:53.326Z,2.60
2022-09-07T22:01:23.258Z,2.30
2022-09-07T22:03:55.308Z,2.80
2022-09-07T22:06:23.572Z,2.10
2022-09-07T22:08:51.808Z,2.20
2022-09-07T22:11:23.010Z,2.30
2022-09-07T22:13:54.858Z,2.50
2022-09-07T22:16:24.538Z,1.80
2022-09-07T22:18:52.470Z,2.03
2022-09-07T22:21:22.353Z,2.63
2022-09-07T22:23:52.222Z,2.20
2022-09-07T22:26:21.590Z,1.70
2022-09-07T22:28:49.741Z,2.03
2022-09-07T22:31:19.231Z,2.40
2022-09-07T22:33:49.428Z,2.73
2022-09-07T22:36:19.327Z,2.10
2022-09-07T22:38:50.320Z,2.70
2022-09-07T22:41:19.917Z,2.50
2022-09-07T22:43:50.708Z,3.30
2022-09-07T22:46:20.244Z,2.67
2022-09-07T22:48:49.522Z,2.50
2022-09-07T22:51:17.999Z,2.43
2022-09-07T22:53:46.090Z,2.70
2022-09-07T22:56:15.366Z,2.60
2022-09-07T23:01:19.280Z,2.77
2022-09-07T23:03:47.470Z,2.47
2022-09-07T23:06:25.705Z,1.80
2022-09-07T23:08:54.580Z,2.20
2022-09-07T23:11:23.927Z,1.97
2022-09-07T23:13:52.678Z,1.93
2022-09-07T23:16:21.327Z,1.80
2022-09-07T23:18:49.782Z,1.90
2022-09-07T23:21:18.081Z,2.10
2022-09-07T23:23:52.220Z,1.53
2022-09-07T23:26:20.911Z,1.93
2022-09-07T23:28:52.414Z,1.40
2022-09-07T23:31:20.769Z,1.70
2022-09-07T23:33:49.228Z,1.53
2022-09-07T23:36:18.306Z,2.80
2022-09-07T23:38:46.423Z,1.30
2022-09-07T23:41:17.249Z,1.33
2022-09-07T23:43:45.137Z,1.40
2022-09-07T23:46:13.811Z,1.93
2022-09-07T23:48:43.666Z,1.93
2022-09-07T23:51:11.763Z,1.30
2022-09-07T23:53:39.625Z,1.37
2022-09-07T23:56:07.531Z,1.07
2022-09-07T23:58:36.744Z,1.50
